Time;durP1;ratioP1;P1;durP2;ratioP2;P2;SDS_P1;SDS_P2;PMS_P1;PMS_P2;Temp;Humidity;BMP_temperature;BMP_pressure;BME280_temperature;BME280_humidity;BME280_pressure;Samples;Min_cycle;Max_cycle;Signal;HPM_P1;HPM_P2
2023/09/25 00:02:09;;;;;;;0.90;0.90;;;;;;;;;;5046026;28;20685;-65
2023/09/25 00:04:37;;;;;;;0.93;0.93;;;;;;;;;;5044932;28;20318;-65
2023/09/25 00:07:04;;;;;;;1.70;0.90;;;;;;;;;;5046918;28;20218;-65
2023/09/25 00:09:31;;;;;;;1.67;1.00;;;;;;;;;;5047059;28;20215;-65
2023/09/25 00:11:58;;;;;;;1.07;0.90;;;;;;;;;;5046790;28;20343;-65
2023/09/25 00:14:25;;;;;;;1.90;1.00;;;;;;;;;;5045913;28;20231;-65
2023/09/25 00:16:52;;;;;;;1.67;1.27;;;;;;;;;;5045466;28;20295;-65
2023/09/25 00:19:20;;;;;;;1.37;1.37;;;;;;;;;;5046216;28;20844;-65
2023/09/25 00:21:48;;;;;;;1.37;1.10;;;;;;;;;;5046183;28;20603;-65
2023/09/25 00:24:15;;;;;;;1.73;1.40;;;;;;;;;;5044870;28;20239;-65
2023/09/25 00:26:43;;;;;;;1.00;1.00;;;;;;;;;;5041420;28;20579;-66
2023/09/25 00:29:10;;;;;;;0.90;0.90;;;;;;;;;;5043768;28;20212;-65
2023/09/25 00:31:38;;;;;;;1.20;1.10;;;;;;;;;;5044544;28;20466;-65
2023/09/25 00:34:05;;;;;;;1.80;1.00;;;;;;;;;;5046066;28;20689;-65
2023/09/25 00:36:32;;;;;;;1.13;1.03;;;;;;;;;;5044573;28;20215;-65
2023/09/25 00:39:00;;;;;;;1.07;1.07;;;;;;;;;;5044523;28;20684;-65
2023/09/25 00:41:27;;;;;;;1.10;1.10;;;;;;;;;;5041384;28;20219;-65
2023/09/25 00:43:54;;;;;;;1.10;1.10;;;;;;;;;;5049743;28;20227;-65
2023/09/25 00:46:21;;;;;;;2.63;1.20;;;;;;;;;;5048258;28;20231;-65
2023/09/25 00:48:48;;;;;;;0.90;0.90;;;;;;;;;;5047916;28;20211;-68
2023/09/25 00:51:15;;;;;;;1.10;1.10;;;;;;;;;;5043940;28;20226;-65
2023/09/25 00:53:45;;;;;;;1.00;1.00;;;;;;;;;;5042627;28;20254;-65
2023/09/25 00:56:13;;;;;;;0.90;0.90;;;;;;;;;;5043715;28;20204;-65
2023/09/25 00:58:40;;;;;;;1.20;1.17;;;;;;;;;;5046839;28;20565;-65
2023/09/25 01:01:08;;;;;;;3.47;1.10;;;;;;;;;;5044045;28;20219;-65
2023/09/25 01:03:35;;;;;;;0.90;0.90;;;;;;;;;;5046077;28;20207;-65
2023/09/25 01:06:04;;;;;;;1.17;1.10;;;;;;;;;;5044813;28;20223;-65
2023/09/25 01:08:32;;;;;;;1.40;1.20;;;;;;;;;;5043719;28;20692;-65
2023/09/25 01:11:03;;;;;;;1.10;1.10;;;;;;;;;;5044377;28;20203;-65
2023/09/25 01:13:31;;;;;;;1.90;1.00;;;;;;;;;;5048511;28;20211;-65
2023/09/25 01:15:58;;;;;;;0.80;0.80;;;;;;;;;;5048073;28;20231;-65
2023/09/25 01:18:26;;;;;;;0.90;0.90;;;;;;;;;;5046673;28;20772;-65
2023/09/25 01:20:53;;;;;;;1.00;0.83;;;;;;;;;;5042992;28;20707;-65
2023/09/25 01:23:21;;;;;;;0.90;0.90;;;;;;;;;;5049354;28;20219;-65
2023/09/25 01:25:48;;;;;;;1.10;0.90;;;;;;;;;;5043026;28;20269;-65
2023/09/25 01:28:15;;;;;;;1.10;1.00;;;;;;;;;;5046234;28;20207;-65
2023/09/25 01:30:43;;;;;;;1.20;1.20;;;;;;;;;;5048456;28;20212;-68
2023/09/25 01:33:10;;;;;;;1.00;1.00;;;;;;;;;;5048190;28;20362;-65
2023/09/25 01:35:37;;;;;;;1.77;1.00;;;;;;;;;;5047898;28;20207;-65
2023/09/25 01:38:04;;;;;;;1.30;1.20;;;;;;;;;;5048880;28;20762;-65
2023/09/25 01:40:33;;;;;;;2.40;1.30;;;;;;;;;;5047853;28;20215;-65
2023/09/25 01:43:00;;;;;;;1.00;1.00;;;;;;;;;;5048423;28;20208;-65
2023/09/25 01:45:27;;;;;;;1.03;1.03;;;;;;;;;;5048984;28;20232;-65
2023/09/25 01:47:55;;;;;;;1.03;1.03;;;;;;;;;;5048186;28;20337;-65
2023/09/25 01:50:23;;;;;;;2.10;0.90;;;;;;;;;;5048385;28;20207;-65
2023/09/25 01:52:54;;;;;;;1.43;1.20;;;;;;;;;;5047438;28;20208;-66
2023/09/25 01:55:21;;;;;;;1.30;1.20;;;;;;;;;;5048409;28;20195;-65
2023/09/25 01:57:50;;;;;;;0.97;0.97;;;;;;;;;;5048158;28;20203;-65
2023/09/25 02:00:18;;;;;;;1.90;1.17;;;;;;;;;;5048401;28;20202;-65
2023/09/25 02:02:45;;;;;;;1.40;1.30;;;;;;;;;;5047809;28;20682;-65
2023/09/25 02:05:12;;;;;;;1.30;1.30;;;;;;;;;;5048214;28;20227;-65
2023/09/25 02:07:40;;;;;;;1.30;1.30;;;;;;;;;;5046957;28;20218;-65
2023/09/25 02:10:08;;;;;;;2.00;1.17;;;;;;;;;;5047778;28;20212;-65
2023/09/25 02:12:35;;;;;;;2.27;1.40;;;;;;;;;;5046563;28;20212;-65
2023/09/25 02:15:05;;;;;;;1.17;1.17;;;;;;;;;;5047976;28;20212;-65
2023/09/25 02:17:32;;;;;;;1.57;1.30;;;;;;;;;;5047799;28;20319;-65
2023/09/25 02:20:12;;;;;;;1.30;1.30;;;;;;;;;;5047735;28;20622;-65
2023/09/25 02:22:39;;;;;;;2.67;1.40;;;;;;;;;;5047411;28;20302;-65
2023/09/25 02:25:06;;;;;;;1.17;1.17;;;;;;;;;;5047971;28;20219;-65
2023/09/25 02:27:33;;;;;;;4.23;1.40;;;;;;;;;;5048015;28;20315;-65
2023/09/25 02:30:00;;;;;;;1.10;1.10;;;;;;;;;;5047211;28;20211;-65
2023/09/25 02:32:29;;;;;;;1.40;1.30;;;;;;;;;;5046863;28;20239;-65
2023/09/25 02:34:56;;;;;;;2.00;1.40;;;;;;;;;;5036974;28;20214;-65
2023/09/25 02:37:23;;;;;;;1.53;1.43;;;;;;;;;;5046855;28;20282;-65
2023/09/25 02:39:50;;;;;;;1.30;1.30;;;;;;;;;;5046174;28;20211;-65
2023/09/25 02:42:17;;;;;;;3.53;1.20;;;;;;;;;;5044694;28;20223;-65
2023/09/25 02:44:44;;;;;;;1.50;1.40;;;;;;;;;;5045886;28;20581;-65
2023/09/25 02:47:11;;;;;;;2.30;1.30;;;;;;;;;;5032560;28;20228;-65
2023/09/25 02:49:40;;;;;;;1.50;1.20;;;;;;;;;;5046958;28;20211;-65
2023/09/25 02:52:07;;;;;;;1.47;1.47;;;;;;;;;;5047396;28;20208;-65
2023/09/25 02:54:34;;;;;;;3.50;1.10;;;;;;;;;;5046982;28;20738;-65
2023/09/25 02:57:01;;;;;;;1.50;1.40;;;;;;;;;;5046609;28;20211;-65
2023/09/25 02:59:28;;;;;;;5.20;1.70;;;;;;;;;;5046567;28;20212;-65
2023/09/25 03:01:55;;;;;;;1.47;1.37;;;;;;;;;;5047242;28;20219;-65
2023/09/25 03:04:22;;;;;;;1.50;1.40;;;;;;;;;;5046479;28;20203;-65
2023/09/25 03:06:51;;;;;;;1.43;1.30;;;;;;;;;;5048051;28;20232;-65
2023/09/25 03:09:18;;;;;;;1.43;1.43;;;;;;;;;;5047134;28;20207;-65
2023/09/25 03:11:45;;;;;;;1.60;1.50;;;;;;;;;;5047820;28;20211;-65
2023/09/25 03:14:12;;;;;;;1.50;1.40;;;;;;;;;;5047750;28;20200;-65
2023/09/25 03:16:40;;;;;;;1.40;1.40;;;;;;;;;;5047050;28;20210;-65
2023/09/25 03:19:07;;;;;;;1.50;1.50;;;;;;;;;;5046938;28;20220;-65
2023/09/25 03:21:34;;;;;;;1.17;1.17;;;;;;;;;;5047143;28;20203;-65
2023/09/25 03:24:03;;;;;;;1.53;1.43;;;;;;;;;;5047360;28;20215;-65
2023/09/25 03:26:30;;;;;;;1.70;1.60;;;;;;;;;;5047058;28;20231;-65
2023/09/25 03:28:57;;;;;;;1.77;1.77;;;;;;;;;;5047283;28;20661;-65
2023/09/25 03:31:24;;;;;;;1.20;1.20;;;;;;;;;;5046359;28;20333;-65
2023/09/25 03:33:52;;;;;;;1.40;1.40;;;;;;;;;;5046923;28;20215;-65
2023/09/25 03:36:19;;;;;;;2.13;1.50;;;;;;;;;;5047341;28;20203;-65
2023/09/25 03:38:46;;;;;;;2.63;2.20;;;;;;;;;;5047244;28;20207;-65
2023/09/25 03:41:14;;;;;;;4.80;1.60;;;;;;;;;;5046091;28;20207;-65
2023/09/25 03:43:41;;;;;;;1.27;1.20;;;;;;;;;;5032052;28;20680;-65
2023/09/25 03:46:08;;;;;;;1.50;1.40;;;;;;;;;;5037967;28;20224;-65
2023/09/25 03:48:35;;;;;;;1.47;1.47;;;;;;;;;;5046737;28;20223;-65
2023/09/25 03:51:02;;;;;;;1.43;1.40;;;;;;;;;;5046153;28;20223;-65
2023/09/25 03:53:29;;;;;;;2.40;1.60;;;;;;;;;;5046604;28;20665;-65
2023/09/25 03:55:56;;;;;;;1.50;1.50;;;;;;;;;;5042441;28;20204;-65
2023/09/25 03:58:25;;;;;;;2.67;1.60;;;;;;;;;;5044096;28;20509;-65
2023/09/25 04:00:52;;;;;;;1.30;1.30;;;;;;;;;;5046029;28;20231;-65
2023/09/25 04:03:20;;;;;;;1.60;1.50;;;;;;;;;;5046613;28;20240;-65
2023/09/25 04:05:47;;;;;;;2.90;1.63;;;;;;;;;;5046256;28;20223;-65
2023/09/25 04:08:14;;;;;;;3.30;1.53;;;;;;;;;;5046346;28;20678;-65
2023/09/25 04:10:41;;;;;;;1.60;1.60;;;;;;;;;;5047181;28;20290;-65
2023/09/25 04:13:09;;;;;;;1.50;1.50;;;;;;;;;;5046343;28;20207;-65
2023/09/25 04:15:37;;;;;;;1.80;1.70;;;;;;;;;;5047627;28;20234;-65
2023/09/25 04:18:06;;;;;;;1.40;1.40;;;;;;;;;;5040949;28;20673;-65
2023/09/25 04:20:33;;;;;;;1.90;1.80;;;;;;;;;;5047851;28;20239;-65
2023/09/25 04:23:00;;;;;;;2.03;1.67;;;;;;;;;;5050945;28;20218;-65
2023/09/25 04:25:27;;;;;;;1.93;1.83;;;;;;;;;;5050736;28;20242;-65
2023/09/25 04:27:57;;;;;;;2.27;2.17;;;;;;;;;;5050447;28;20227;-65
2023/09/25 04:30:24;;;;;;;1.80;1.70;;;;;;;;;;5050323;28;20208;-65
2023/09/25 04:32:54;;;;;;;2.57;1.60;;;;;;;;;;5044144;28;20208;-65
2023/09/25 04:35:22;;;;;;;2.77;1.60;;;;;;;;;;5045422;28;20205;-65
2023/09/25 04:37:49;;;;;;;1.80;1.80;;;;;;;;;;5029266;28;20406;-65
2023/09/25 04:40:22;;;;;;;1.63;1.63;;;;;;;;;;5045073;28;20217;-65
2023/09/25 04:42:50;;;;;;;1.63;1.53;;;;;;;;;;5040631;28;20207;-65
2023/09/25 04:45:18;;;;;;;1.70;1.67;;;;;;;;;;5050433;28;20593;-65
2023/09/25 04:47:45;;;;;;;1.93;1.80;;;;;;;;;;5045892;28;20249;-65
2023/09/25 04:50:15;;;;;;;1.80;1.70;;;;;;;;;;5050299;28;20286;-65
2023/09/25 04:52:44;;;;;;;2.40;1.70;;;;;;;;;;5049743;28;20633;-65
2023/09/25 04:55:12;;;;;;;4.93;2.03;;;;;;;;;;5050438;28;20239;-65
2023/09/25 04:57:39;;;;;;;2.33;2.13;;;;;;;;;;5049692;28;20231;-65
2023/09/25 05:00:13;;;;;;;2.00;1.80;;;;;;;;;;5036163;28;20212;-65
2023/09/25 05:02:41;;;;;;;3.10;1.93;;;;;;;;;;5038399;28;20666;-65
2023/09/25 05:05:08;;;;;;;2.40;2.20;;;;;;;;;;5034075;28;20239;-65
2023/09/25 05:07:37;;;;;;;1.70;1.70;;;;;;;;;;5042214;28;20334;-65
2023/09/25 05:10:05;;;;;;;1.80;1.70;;;;;;;;;;5046551;28;20211;-64
2023/09/25 05:12:32;;;;;;;2.20;2.00;;;;;;;;;;5042451;28;20214;-64
2023/09/25 05:14:59;;;;;;;2.00;1.90;;;;;;;;;;5049330;28;20829;-64
2023/09/25 05:17:26;;;;;;;2.23;2.00;;;;;;;;;;5045705;28;20219;-64
2023/09/25 05:19:53;;;;;;;2.50;2.10;;;;;;;;;;5041648;28;20239;-64
2023/09/25 05:22:20;;;;;;;2.63;2.03;;;;;;;;;;5044577;28;20204;-65
2023/09/25 05:24:49;;;;;;;1.87;1.87;;;;;;;;;;5041958;28;20211;-64
2023/09/25 05:27:16;;;;;;;2.37;2.17;;;;;;;;;;5048277;28;20243;-62
2023/09/25 05:29:46;;;;;;;2.47;2.13;;;;;;;;;;5048561;28;20212;-64
2023/09/25 05:32:13;;;;;;;2.33;2.13;;;;;;;;;;5040019;28;20295;-62
2023/09/25 05:34:40;;;;;;;3.23;2.10;;;;;;;;;;5049434;28;20204;-62
2023/09/25 05:37:07;;;;;;;9.70;4.93;;;;;;;;;;5029503;28;20208;-64
2023/09/25 05:39:34;;;;;;;8.67;3.47;;;;;;;;;;5029440;28;20212;-63
2023/09/25 05:42:03;;;;;;;8.27;2.20;;;;;;;;;;5031923;28;20212;-63
2023/09/25 05:44:30;;;;;;;2.17;2.07;;;;;;;;;;5049028;28;20266;-61
2023/09/25 05:46:57;;;;;;;1.80;1.70;;;;;;;;;;5048635;28;20251;-63
2023/09/25 05:49:25;;;;;;;1.70;1.70;;;;;;;;;;5049448;28;20293;-64
2023/09/25 05:51:53;;;;;;;1.90;1.90;;;;;;;;;;5049486;28;20219;-63
2023/09/25 05:54:20;;;;;;;1.80;1.70;;;;;;;;;;5049249;28;20310;-63
2023/09/25 05:56:47;;;;;;;1.70;1.70;;;;;;;;;;5049308;28;20211;-63
2023/09/25 05:59:15;;;;;;;2.73;1.90;;;;;;;;;;5048957;28;20299;-63
2023/09/25 06:01:43;;;;;;;1.47;1.47;;;;;;;;;;5049067;28;20561;-63
2023/09/25 06:04:10;;;;;;;1.73;1.73;;;;;;;;;;5048957;28;20300;-62
2023/09/25 06:06:37;;;;;;;2.20;2.10;;;;;;;;;;5048591;28;20224;-63
2023/09/25 06:09:08;;;;;;;2.00;1.90;;;;;;;;;;5048409;28;20211;-63
2023/09/25 06:11:37;;;;;;;2.23;1.83;;;;;;;;;;5048594;28;20207;-63
2023/09/25 06:14:04;;;;;;;1.77;1.77;;;;;;;;;;5040021;28;20212;-63
2023/09/25 06:16:32;;;;;;;2.23;1.80;;;;;;;;;;5044834;28;20199;-64
2023/09/25 06:18:59;;;;;;;1.47;1.37;;;;;;;;;;5040394;28;20231;-63
2023/09/25 06:21:26;;;;;;;1.63;1.63;;;;;;;;;;5031147;28;20213;-63
2023/09/25 06:23:54;;;;;;;1.50;1.50;;;;;;;;;;5047093;28;20243;-63
2023/09/25 06:26:22;;;;;;;2.43;1.63;;;;;;;;;;5047706;28;20214;-62
2023/09/25 06:28:49;;;;;;;3.67;1.57;;;;;;;;;;5047335;28;20208;-63
2023/09/25 06:31:16;;;;;;;2.00;1.80;;;;;;;;;;5046926;28;20212;-62
2023/09/25 06:33:45;;;;;;;3.30;1.80;;;;;;;;;;5047603;28;20219;-62
2023/09/25 06:36:12;;;;;;;2.53;1.40;;;;;;;;;;5047752;28;20239;-62
2023/09/25 06:38:39;;;;;;;1.47;1.43;;;;;;;;;;5046643;28;20207;-62
2023/09/25 06:41:06;;;;;;;1.37;1.37;;;;;;;;;;5047580;28;20295;-62
2023/09/25 06:43:33;;;;;;;2.30;1.40;;;;;;;;;;5046786;28;20212;-62
2023/09/25 06:46:01;;;;;;;1.57;1.40;;;;;;;;;;5047581;28;20211;-62
2023/09/25 06:48:28;;;;;;;1.40;1.40;;;;;;;;;;5044843;28;20250;-64
2023/09/25 06:50:56;;;;;;;2.53;1.50;;;;;;;;;;5046660;28;20689;-64
2023/09/25 06:53:23;;;;;;;2.20;1.43;;;;;;;;;;5046483;28;20215;-64
2023/09/25 06:55:50;;;;;;;1.93;1.47;;;;;;;;;;5047279;28;20222;-63
2023/09/25 06:58:17;;;;;;;2.50;1.37;;;;;;;;;;5047052;28;20208;-62
2023/09/25 07:00:46;;;;;;;1.30;1.30;;;;;;;;;;5045098;28;20211;-63
2023/09/25 07:03:13;;;;;;;1.70;1.60;;;;;;;;;;5038819;28;20211;-65
2023/09/25 07:05:40;;;;;;;1.63;1.53;;;;;;;;;;5045709;28;20215;-65
2023/09/25 07:08:09;;;;;;;7.10;3.50;;;;;;;;;;5045975;28;20701;-66
2023/09/25 07:10:36;;;;;;;17.43;9.40;;;;;;;;;;5044865;28;20597;-66
2023/09/25 07:13:03;;;;;;;2.07;1.90;;;;;;;;;;5026961;28;20212;-62
2023/09/25 07:15:31;;;;;;;8.17;2.67;;;;;;;;;;5034377;28;20211;-67
2023/09/25 07:18:00;;;;;;;3.53;2.60;;;;;;;;;;5038116;28;20808;-68
2023/09/25 07:20:27;;;;;;;1.87;1.30;;;;;;;;;;5026468;28;20247;-65
2023/09/25 07:22:54;;;;;;;2.13;1.90;;;;;;;;;;5027040;28;20837;-66
2023/09/25 07:25:23;;;;;;;2.20;2.00;;;;;;;;;;5033364;28;20203;-62
2023/09/25 07:27:51;;;;;;;1.70;1.60;;;;;;;;;;5046368;28;20223;-65
2023/09/25 07:30:18;;;;;;;2.53;1.53;;;;;;;;;;5046378;28;20739;-65
2023/09/25 07:32:45;;;;;;;2.30;2.10;;;;;;;;;;5045204;28;20218;-67
2023/09/25 07:35:15;;;;;;;2.27;1.50;;;;;;;;;;5045334;28;20241;-68
2023/09/25 07:37:44;;;;;;;2.30;1.83;;;;;;;;;;5045606;28;20199;-75
2023/09/25 07:40:14;;;;;;;1.60;1.50;;;;;;;;;;5045536;28;20765;-61
2023/09/25 07:42:42;;;;;;;6.10;1.80;;;;;;;;;;5046072;28;20203;-63
2023/09/25 07:45:12;;;;;;;1.38;1.27;;;;;;;;;;5045741;28;20916;-62
2023/09/25 07:47:40;;;;;;;2.77;2.33;;;;;;;;;;5045824;28;20261;-61
2023/09/25 07:50:10;;;;;;;1.50;1.40;;;;;;;;;;5045477;28;20291;-61
2023/09/25 07:52:37;;;;;;;1.40;1.30;;;;;;;;;;5045906;28;20299;-66
2023/09/25 07:55:06;;;;;;;1.33;1.33;;;;;;;;;;5045746;28;20230;-63
2023/09/25 07:57:35;;;;;;;1.60;1.40;;;;;;;;;;5032515;28;20221;-62
2023/09/25 08:00:10;;;;;;;1.37;1.27;;;;;;;;;;5044794;28;20208;-62
2023/09/25 08:02:39;;;;;;;1.40;1.30;;;;;;;;;;5044684;28;20203;-62
2023/09/25 08:05:07;;;;;;;1.37;1.33;;;;;;;;;;5045921;28;20277;-62
2023/09/25 08:07:34;;;;;;;1.63;1.50;;;;;;;;;;5043475;28;20318;-62
2023/09/25 08:10:01;;;;;;;3.33;1.38;;;;;;;;;;5045456;28;20253;-62
2023/09/25 08:12:28;;;;;;;1.20;1.20;;;;;;;;;;5044953;28;20715;-62
2023/09/25 08:14:56;;;;;;;4.22;1.42;;;;;;;;;;5045782;28;20207;-62
2023/09/25 08:17:25;;;;;;;1.27;1.20;;;;;;;;;;5043745;28;20265;-62
2023/09/25 08:19:52;;;;;;;1.60;1.50;;;;;;;;;;5045571;28;20239;-62
2023/09/25 08:22:20;;;;;;;1.20;1.10;;;;;;;;;;5042567;28;20231;-62
2023/09/25 08:24:47;;;;;;;1.73;1.63;;;;;;;;;;5036697;28;20211;-62
2023/09/25 08:27:15;;;;;;;3.78;1.40;;;;;;;;;;5045305;28;20250;-62
2023/09/25 08:29:42;;;;;;;1.38;1.35;;;;;;;;;;5044465;28;20665;-61
2023/09/25 08:32:09;;;;;;;1.40;1.30;;;;;;;;;;5045017;28;20239;-61
2023/09/25 08:34:37;;;;;;;1.95;1.20;;;;;;;;;;5042266;28;20206;-66
2023/09/25 08:37:06;;;;;;;1.27;1.27;;;;;;;;;;5044932;28;20218;-64
2023/09/25 08:39:33;;;;;;;1.20;1.10;;;;;;;;;;5044831;28;20682;-65
2023/09/25 08:42:00;;;;;;;1.35;1.13;;;;;;;;;;5044733;28;20265;-64
2023/09/25 08:44:28;;;;;;;1.08;1.08;;;;;;;;;;5045550;28;20760;-65
2023/09/25 08:46:55;;;;;;;4.78;1.13;;;;;;;;;;5043675;28;20460;-65
2023/09/25 08:49:22;;;;;;;1.60;1.50;;;;;;;;;;5044974;28;20219;-64
2023/09/25 08:51:51;;;;;;;4.78;1.23;;;;;;;;;;5045466;28;20211;-67
2023/09/25 08:54:18;;;;;;;1.40;1.10;;;;;;;;;;5045517;28;20216;-65
2023/09/25 08:56:47;;;;;;;1.27;1.23;;;;;;;;;;5044919;28;20299;-65
2023/09/25 08:59:14;;;;;;;1.10;1.10;;;;;;;;;;5045155;28;20207;-65
2023/09/25 09:01:41;;;;;;;0.95;0.95;;;;;;;;;;5043716;28;20200;-66
2023/09/25 09:04:08;;;;;;;2.80;1.00;;;;;;;;;;5047735;28;20212;-65
2023/09/25 09:06:35;;;;;;;1.13;1.13;;;;;;;;;;5045345;28;20223;-65
2023/09/25 09:09:04;;;;;;;1.30;1.10;;;;;;;;;;5037969;28;20228;-67
2023/09/25 09:11:31;;;;;;;1.33;0.80;;;;;;;;;;5045830;28;20218;-65
2023/09/25 09:13:58;;;;;;;1.25;1.00;;;;;;;;;;5039700;28;20226;-65
2023/09/25 09:16:25;;;;;;;0.88;0.88;;;;;;;;;;5046607;28;20299;-64
2023/09/25 09:19:06;;;;;;;1.08;1.08;;;;;;;;;;5046153;28;20231;-65
2023/09/25 09:21:33;;;;;;;1.45;0.93;;;;;;;;;;5045519;28;20510;-65
2023/09/25 09:24:00;;;;;;;0.98;0.93;;;;;;;;;;5046522;28;20216;-65
2023/09/25 09:26:30;;;;;;;0.98;0.98;;;;;;;;;;5044918;28;20212;-65
2023/09/25 09:28:57;;;;;;;1.15;1.05;;;;;;;;;;5037895;28;20248;-65
2023/09/25 09:31:24;;;;;;;2.75;1.10;;;;;;;;;;5027968;28;20216;-65
2023/09/25 09:33:55;;;;;;;2.42;0.90;;;;;;;;;;5043653;28;20230;-65
2023/09/25 09:36:23;;;;;;;0.95;0.90;;;;;;;;;;5046311;28;20235;-65
2023/09/25 09:38:50;;;;;;;0.95;0.95;;;;;;;;;;5044925;28;20223;-65
2023/09/25 09:41:17;;;;;;;1.00;1.00;;;;;;;;;;5045948;28;20222;-65
2023/09/25 09:43:46;;;;;;;1.00;1.00;;;;;;;;;;5044668;28;20223;-65
2023/09/25 09:46:14;;;;;;;1.00;0.95;;;;;;;;;;5045817;28;20218;-65
2023/09/25 09:48:41;;;;;;;0.80;0.80;;;;;;;;;;5044902;28;20637;-65
2023/09/25 09:51:10;;;;;;;1.75;0.90;;;;;;;;;;5045862;28;20215;-66
2023/09/25 09:53:38;;;;;;;0.90;0.90;;;;;;;;;;5045070;28;20211;-66
2023/09/25 09:56:05;;;;;;;1.08;1.08;;;;;;;;;;5045827;28;20211;-66
2023/09/25 09:58:33;;;;;;;1.90;1.00;;;;;;;;;;5046050;28;20214;-65
2023/09/25 10:01:02;;;;;;;0.80;0.80;;;;;;;;;;5042196;28;20218;-65
2023/09/25 10:03:31;;;;;;;4.22;1.00;;;;;;;;;;5045229;28;20212;-65
2023/09/25 10:05:58;;;;;;;1.52;0.98;;;;;;;;;;5039235;28;20299;-65
2023/09/25 10:08:25;;;;;;;0.95;0.95;;;;;;;;;;5033811;28;20228;-66
2023/09/25 10:10:52;;;;;;;1.05;1.05;;;;;;;;;;5040437;28;20200;-65
2023/09/25 10:13:22;;;;;;;1.00;1.00;;;;;;;;;;5047989;28;20207;-68
2023/09/25 10:15:53;;;;;;;0.88;0.88;;;;;;;;;;5048001;28;20215;-67
2023/09/25 10:18:22;;;;;;;1.58;1.02;;;;;;;;;;5047148;28;20735;-63
2023/09/25 10:20:49;;;;;;;0.80;0.80;;;;;;;;;;5048036;28;20243;-67
2023/09/25 10:23:21;;;;;;;0.80;0.80;;;;;;;;;;5048438;28;20219;-68
2023/09/25 10:25:51;;;;;;;1.17;1.10;;;;;;;;;;5048190;28;20235;-68
2023/09/25 10:28:19;;;;;;;2.63;0.88;;;;;;;;;;5046547;28;20331;-67
2023/09/25 10:30:47;;;;;;;0.90;0.90;;;;;;;;;;5047816;28;20208;-69
2023/09/25 10:33:14;;;;;;;2.88;0.90;;;;;;;;;;5035810;28;20208;-69
2023/09/25 10:35:43;;;;;;;0.93;0.85;;;;;;;;;;5035278;28;20238;-69
2023/09/25 10:38:15;;;;;;;1.00;1.00;;;;;;;;;;5046769;28;20204;-69
2023/09/25 10:40:45;;;;;;;2.28;1.30;;;;;;;;;;5030903;28;20214;-69
2023/09/25 10:43:12;;;;;;;1.25;1.20;;;;;;;;;;5046946;28;20211;-69
2023/09/25 10:45:39;;;;;;;1.10;1.00;;;;;;;;;;5042622;28;20211;-69
2023/09/25 10:48:06;;;;;;;1.00;1.00;;;;;;;;;;5047391;28;20231;-69
2023/09/25 10:50:33;;;;;;;2.05;0.93;;;;;;;;;;5046865;28;20208;-69
2023/09/25 10:53:03;;;;;;;1.30;1.20;;;;;;;;;;5047266;28;20673;-69
2023/09/25 10:55:30;;;;;;;1.05;0.82;;;;;;;;;;5047183;28;20212;-69
2023/09/25 10:57:57;;;;;;;1.10;1.10;;;;;;;;;;5045821;28;20907;-69
2023/09/25 11:00:24;;;;;;;0.93;0.93;;;;;;;;;;5044348;28;20211;-69
2023/09/25 11:02:52;;;;;;;1.58;1.48;;;;;;;;;;5045868;28;20215;-69
2023/09/25 11:05:25;;;;;;;1.85;1.13;;;;;;;;;;5045413;28;20219;-69
2023/09/25 11:07:53;;;;;;;0.90;0.90;;;;;;;;;;5045248;28;20733;-69
2023/09/25 11:10:21;;;;;;;0.90;0.90;;;;;;;;;;5046377;28;20218;-68
2023/09/25 11:12:49;;;;;;;1.65;0.98;;;;;;;;;;5046672;28;20318;-67
2023/09/25 11:15:18;;;;;;;0.93;0.93;;;;;;;;;;5046997;28;20211;-68
2023/09/25 11:17:46;;;;;;;0.98;0.98;;;;;;;;;;5046768;28;20708;-67
2023/09/25 11:20:16;;;;;;;1.13;1.10;;;;;;;;;;5046171;28;20653;-68
2023/09/25 11:22:43;;;;;;;1.30;1.05;;;;;;;;;;5045836;28;20704;-67
2023/09/25 11:25:12;;;;;;;0.90;0.90;;;;;;;;;;5045514;28;20208;-67
2023/09/25 11:27:51;;;;;;;1.90;1.00;;;;;;;;;;5046646;28;20700;-67
2023/09/25 11:30:18;;;;;;;2.47;1.17;;;;;;;;;;5046055;28;20269;-67
2023/09/25 11:32:45;;;;;;;3.08;1.13;;;;;;;;;;5046570;28;20257;-68
2023/09/25 11:35:12;;;;;;;1.00;1.00;;;;;;;;;;5046189;28;20215;-67
2023/09/25 11:37:40;;;;;;;1.35;1.25;;;;;;;;;;5046634;28;20219;-67
2023/09/25 11:40:08;;;;;;;1.55;0.90;;;;;;;;;;5046105;28;20204;-67
2023/09/25 11:42:38;;;;;;;0.80;0.80;;;;;;;;;;5045605;28;20845;-68
2023/09/25 11:45:09;;;;;;;2.35;1.10;;;;;;;;;;5046268;28;20207;-67
2023/09/25 11:47:38;;;;;;;1.75;1.10;;;;;;;;;;5044713;28;20215;-67
2023/09/25 11:50:06;;;;;;;1.58;1.00;;;;;;;;;;5042944;28;20231;-68
2023/09/25 11:52:33;;;;;;;1.00;1.00;;;;;;;;;;5036885;28;20269;-66
2023/09/25 11:55:00;;;;;;;0.98;0.98;;;;;;;;;;5045729;28;20231;-65
2023/09/25 11:57:27;;;;;;;2.15;0.90;;;;;;;;;;5046078;28;20593;-68
2023/09/25 11:59:54;;;;;;;1.30;0.90;;;;;;;;;;5045777;28;20212;-66
2023/09/25 12:02:25;;;;;;;1.15;1.00;;;;;;;;;;5046186;28;20208;-65
2023/09/25 12:04:54;;;;;;;1.35;1.20;;;;;;;;;;5046240;28;20219;-67
2023/09/25 12:07:21;;;;;;;1.65;1.00;;;;;;;;;;5046363;28;20204;-66
2023/09/25 12:09:49;;;;;;;0.88;0.88;;;;;;;;;;5046209;28;20243;-65
2023/09/25 12:12:18;;;;;;;1.13;1.10;;;;;;;;;;5046138;28;20290;-66
2023/09/25 12:14:47;;;;;;;1.17;0.85;;;;;;;;;;5037644;28;20215;-67
2023/09/25 12:17:16;;;;;;;0.90;0.90;;;;;;;;;;5037228;28;20210;-65
2023/09/25 12:19:44;;;;;;;0.93;0.93;;;;;;;;;;5045128;28;20243;-65
2023/09/25 12:22:12;;;;;;;1.13;1.10;;;;;;;;;;5046326;28;20219;-65
2023/09/25 12:24:39;;;;;;;0.82;0.82;;;;;;;;;;5045082;28;20273;-65
2023/09/25 12:27:06;;;;;;;2.28;1.20;;;;;;;;;;5045933;28;20242;-66
2023/09/25 12:29:33;;;;;;;1.10;1.10;;;;;;;;;;5046169;28;20238;-65
2023/09/25 12:32:01;;;;;;;3.35;1.10;;;;;;;;;;5046042;28;20945;-66
2023/09/25 12:34:28;;;;;;;0.95;0.95;;;;;;;;;;5045280;28;20743;-66
2023/09/25 12:36:56;;;;;;;1.42;1.33;;;;;;;;;;5047111;28;20207;-66
2023/09/25 12:39:23;;;;;;;0.80;0.80;;;;;;;;;;5050265;28;20212;-66
2023/09/25 12:41:50;;;;;;;1.50;1.08;;;;;;;;;;5048760;28;20211;-66
2023/09/25 12:44:18;;;;;;;1.15;1.15;;;;;;;;;;5049237;28;20583;-66
2023/09/25 12:46:46;;;;;;;1.40;0.80;;;;;;;;;;5049716;28;20211;-66
2023/09/25 12:49:13;;;;;;;1.10;1.00;;;;;;;;;;5049145;28;20330;-65
2023/09/25 12:51:40;;;;;;;1.13;1.13;;;;;;;;;;5048903;28;20261;-64
2023/09/25 12:54:09;;;;;;;0.93;0.93;;;;;;;;;;5049543;28;20203;-61
2023/09/25 12:56:36;;;;;;;1.25;1.20;;;;;;;;;;5048298;28;20611;-68
2023/09/25 12:59:03;;;;;;;1.17;1.10;;;;;;;;;;5049759;28;20212;-67
2023/09/25 13:01:30;;;;;;;1.45;0.93;;;;;;;;;;5048157;28;20592;-60
2023/09/25 13:03:57;;;;;;;0.88;0.88;;;;;;;;;;5048330;28;20203;-68
2023/09/25 13:06:25;;;;;;;1.55;0.82;;;;;;;;;;5049096;28;20207;-68
2023/09/25 13:08:53;;;;;;;1.45;1.35;;;;;;;;;;5049088;28;20220;-68
2023/09/25 13:11:21;;;;;;;1.10;1.10;;;;;;;;;;5049376;28;20222;-67
2023/09/25 13:13:48;;;;;;;1.23;1.20;;;;;;;;;;5049128;28;20219;-68
2023/09/25 13:16:15;;;;;;;1.00;1.00;;;;;;;;;;5048803;28;20776;-68
2023/09/25 13:18:42;;;;;;;1.00;1.00;;;;;;;;;;5029610;28;20254;-68
2023/09/25 13:21:09;;;;;;;4.22;1.00;;;;;;;;;;5029217;28;20232;-68
2023/09/25 13:23:36;;;;;;;0.98;0.98;;;;;;;;;;5046228;28;20214;-68
2023/09/25 13:26:03;;;;;;;1.27;1.20;;;;;;;;;;5048876;28;20685;-68
2023/09/25 13:28:31;;;;;;;1.00;1.00;;;;;;;;;;5047472;28;20590;-68
2023/09/25 13:30:58;;;;;;;1.15;1.02;;;;;;;;;;5041771;28;20223;-67
2023/09/25 13:33:25;;;;;;;1.35;1.35;;;;;;;;;;5036712;28;20250;-68
2023/09/25 13:35:52;;;;;;;1.23;1.13;;;;;;;;;;5039305;28;20215;-67
2023/09/25 13:38:19;;;;;;;1.10;1.10;;;;;;;;;;5048764;28;20669;-68
2023/09/25 13:40:47;;;;;;;0.98;0.98;;;;;;;;;;5044938;28;20201;-69
2023/09/25 13:43:14;;;;;;;2.28;1.48;;;;;;;;;;5038312;28;20593;-67
2023/09/25 13:45:42;;;;;;;1.00;1.00;;;;;;;;;;5036322;28;20208;-67
2023/09/25 13:48:09;;;;;;;1.45;1.35;;;;;;;;;;5037393;28;20407;-68
2023/09/25 13:50:36;;;;;;;1.20;1.10;;;;;;;;;;5046969;28;20219;-68
2023/09/25 13:53:03;;;;;;;3.92;1.23;;;;;;;;;;5042900;28;20205;-68
2023/09/25 13:55:30;;;;;;;1.20;1.20;;;;;;;;;;5039974;28;20209;-68
2023/09/25 13:57:58;;;;;;;0.98;0.90;;;;;;;;;;5043608;28;20327;-68
2023/09/25 14:00:25;;;;;;;1.20;1.20;;;;;;;;;;5040001;28;20203;-68
2023/09/25 14:02:53;;;;;;;0.82;0.82;;;;;;;;;;5043583;28;20219;-67
2023/09/25 14:05:22;;;;;;;1.60;1.00;;;;;;;;;;5048269;28;20208;-67
2023/09/25 14:07:49;;;;;;;0.85;0.85;;;;;;;;;;5039136;28;20573;-67
2023/09/25 14:10:16;;;;;;;1.40;1.30;;;;;;;;;;5036922;28;20226;-68
2023/09/25 14:12:46;;;;;;;2.25;1.40;;;;;;;;;;5048459;28;20223;-69
2023/09/25 14:15:14;;;;;;;1.20;1.20;;;;;;;;;;5037387;28;20307;-69
2023/09/25 14:17:41;;;;;;;1.10;1.10;;;;;;;;;;5044404;28;20235;-69
2023/09/25 14:20:10;;;;;;;1.13;0.90;;;;;;;;;;5047309;28;20266;-69
2023/09/25 14:22:38;;;;;;;0.80;0.80;;;;;;;;;;5047593;28;20207;-69
2023/09/25 14:25:07;;;;;;;1.02;1.02;;;;;;;;;;5048124;28;20211;-69
2023/09/25 14:27:34;;;;;;;0.82;0.82;;;;;;;;;;5047219;28;20231;-69
2023/09/25 14:30:02;;;;;;;1.00;1.00;;;;;;;;;;5040325;28;20626;-69
2023/09/25 14:32:29;;;;;;;0.88;0.88;;;;;;;;;;5032005;28;20612;-70
2023/09/25 14:34:56;;;;;;;1.45;1.13;;;;;;;;;;5031893;28;20207;-69
2023/09/25 14:37:24;;;;;;;1.52;1.10;;;;;;;;;;5047016;28;20235;-69
2023/09/25 14:39:52;;;;;;;1.08;1.08;;;;;;;;;;5038373;28;20203;-69
2023/09/25 14:42:19;;;;;;;1.05;1.00;;;;;;;;;;5046353;28;20294;-69
2023/09/25 14:44:46;;;;;;;2.25;0.90;;;;;;;;;;5047051;28;20208;-70
2023/09/25 14:47:13;;;;;;;1.63;1.20;;;;;;;;;;5041506;28;20441;-70